Time;durP1;ratioP1;P1;durP2;ratioP2;P2;SDS_P1;SDS_P2;PMS_P1;PMS_P2;Temp;Humidity;BMP_temperature;BMP_pressure;BME280_temperature;BME280_humidity;BME280_pressure;Samples;Min_cycle;Max_cycle;Signal;HPM_P1;HPM_P2
2021/11/18 00:01:18;;;;;;;18.55;13.75;;;12.40;67.30;;;;;;4975498;28;20109;-75
2021/11/18 00:03:46;;;;;;;19.55;13.90;;;12.40;67.20;;;;;;4975497;28;20023;-74
2021/11/18 00:06:12;;;;;;;19.10;13.90;;;12.40;67.10;;;;;;4975305;28;20022;-75
2021/11/18 00:08:38;;;;;;;19.10;13.48;;;12.40;67.10;;;;;;4975543;28;20090;-75
2021/11/18 00:11:07;;;;;;;19.88;13.60;;;12.30;67.10;;;;;;4975438;28;20027;-74
2021/11/18 00:13:36;;;;;;;19.95;14.55;;;12.40;67.20;;;;;;4975452;28;20030;-75
2021/11/18 00:16:03;;;;;;;20.33;15.00;;;12.40;67.10;;;;;;4975171;28;20038;-75
2021/11/18 00:18:32;;;;;;;20.23;14.23;;;12.40;67.10;;;;;;4974873;28;20027;-75
2021/11/18 00:21:09;;;;;;;20.77;15.00;;;12.40;67.70;;;;;;4974554;28;20022;-75
2021/11/18 00:23:43;;;;;;;20.40;14.95;;;12.30;67.00;;;;;;4975059;28;20026;-74
2021/11/18 00:26:10;;;;;;;22.73;13.80;;;12.30;67.20;;;;;;4975244;28;20038;-75
2021/11/18 00:28:36;;;;;;;20.85;14.63;;;12.30;67.10;;;;;;4975086;28;20019;-75
2021/11/18 00:31:03;;;;;;;18.98;14.30;;;12.30;67.10;;;;;;4974983;28;20097;-74
2021/11/18 00:33:29;;;;;;;19.80;13.95;;;12.30;67.20;;;;;;4974993;28;20019;-74
2021/11/18 00:35:55;;;;;;;21.20;14.38;;;12.30;67.10;;;;;;4974990;28;20050;-75
2021/11/18 00:38:21;;;;;;;20.75;14.95;;;12.30;67.10;;;;;;4974810;28;20062;-75
2021/11/18 00:40:50;;;;;;;21.60;15.27;;;12.30;67.40;;;;;;4989456;28;20030;-74
2021/11/18 00:43:17;;;;;;;20.25;14.35;;;12.30;67.30;;;;;;4974897;28;20019;-75
2021/11/18 00:45:43;;;;;;;21.95;15.02;;;12.20;67.20;;;;;;4975044;28;20387;-75
2021/11/18 00:48:10;;;;;;;18.67;14.40;;;12.20;67.30;;;;;;4974734;28;20541;-71
2021/11/18 00:50:40;;;;;;;20.15;14.20;;;12.20;67.40;;;;;;4974525;28;20072;-71
2021/11/18 00:53:06;;;;;;;20.88;14.43;;;12.20;67.50;;;;;;4974574;28;20368;-75
2021/11/18 00:55:33;;;;;;;20.17;14.65;;;12.20;67.40;;;;;;4989395;28;20027;-75
2021/11/18 00:57:59;;;;;;;17.67;13.27;;;12.20;67.40;;;;;;4974827;28;20026;-74
2021/11/18 01:00:29;;;;;;;20.15;14.00;;;12.20;67.30;;;;;;4974431;28;20069;-74
2021/11/18 01:02:58;;;;;;;15.90;12.38;;;12.20;67.30;;;;;;4974398;28;20203;-75
2021/11/18 01:05:28;;;;;;;17.73;13.82;;;12.20;67.30;;;;;;4974380;28;20035;-74
2021/11/18 01:07:56;;;;;;;19.60;14.48;;;12.20;67.30;;;;;;4974901;28;20030;-74
2021/11/18 01:10:23;;;;;;;18.73;13.70;;;12.20;67.30;;;;;;4974592;28;20026;-74
2021/11/18 01:12:49;;;;;;;19.23;13.55;;;12.10;67.50;;;;;;4974172;28;20034;-74
2021/11/18 01:15:21;;;;;;;17.38;13.57;;;12.10;67.60;;;;;;4974491;28;20035;-74
2021/11/18 01:17:47;;;;;;;19.88;14.38;;;12.10;67.80;;;;;;4989390;28;20033;-74
2021/11/18 01:20:15;;;;;;;17.98;13.48;;;12.00;67.70;;;;;;4974618;28;20027;-74
2021/11/18 01:22:42;;;;;;;19.67;13.32;;;12.00;67.70;;;;;;4974440;28;20105;-75
2021/11/18 01:25:10;;;;;;;19.60;13.43;;;12.00;67.90;;;;;;4988875;28;20364;-74
2021/11/18 01:27:35;;;;;;;17.55;12.70;;;12.00;68.00;;;;;;4974441;28;20019;-74
2021/11/18 01:30:08;;;;;;;16.88;12.88;;;12.00;68.20;;;;;;4974079;28;20033;-75
2021/11/18 01:32:35;;;;;;;17.55;12.65;;;12.00;68.00;;;;;;4974860;28;20129;-75
2021/11/18 01:35:00;;;;;;;17.98;13.35;;;12.00;67.80;;;;;;4980963;28;20089;-75
2021/11/18 01:37:26;;;;;;;17.65;12.23;;;12.00;68.00;;;;;;4980500;28;20034;-75
2021/11/18 01:39:52;;;;;;;18.27;12.95;;;12.00;67.90;;;;;;4980592;28;20042;-74
2021/11/18 01:42:18;;;;;;;18.65;13.63;;;12.00;67.90;;;;;;4980562;28;20022;-75
2021/11/18 01:44:49;;;;;;;18.33;13.65;;;12.00;68.10;;;;;;4980725;28;20034;-74
2021/11/18 01:47:16;;;;;;;19.80;13.40;;;12.00;68.30;;;;;;4980747;28;20432;-75
2021/11/18 01:49:44;;;;;;;18.73;13.27;;;11.90;68.30;;;;;;4980253;28;20027;-75
2021/11/18 01:52:14;;;;;;;17.58;12.73;;;11.90;68.30;;;;;;4980596;28;20466;-75
2021/11/18 01:54:41;;;;;;;17.67;13.25;;;11.90;68.30;;;;;;4980443;28;20023;-75
2021/11/18 01:57:11;;;;;;;15.70;11.82;;;11.90;68.30;;;;;;4980348;28;20479;-74
2021/11/18 01:59:39;;;;;;;16.55;12.60;;;11.90;68.30;;;;;;4991863;28;20126;-74
2021/11/18 02:02:08;;;;;;;17.90;11.95;;;11.90;68.30;;;;;;4977587;28;20137;-74
2021/11/18 02:04:45;;;;;;;15.65;11.68;;;11.90;68.40;;;;;;4978611;28;20038;-75
2021/11/18 02:07:11;;;;;;;14.95;11.35;;;11.90;68.40;;;;;;4980103;28;20475;-75
2021/11/18 02:09:40;;;;;;;16.48;11.88;;;11.80;68.30;;;;;;4979796;28;20023;-75
2021/11/18 02:12:27;;;;;;;14.73;11.15;;;11.80;68.40;;;;;;4980040;28;20351;-74
2021/11/18 02:14:54;;;;;;;18.58;12.68;;;11.80;68.30;;;;;;4979798;28;20035;-75
2021/11/18 02:17:22;;;;;;;16.40;12.30;;;11.80;68.40;;;;;;4980250;28;20019;-74
2021/11/18 02:19:59;;;;;;;17.50;13.20;;;11.90;68.50;;;;;;4980020;28;20118;-75
2021/11/18 02:22:26;;;;;;;17.85;12.57;;;11.80;68.60;;;;;;4980455;28;20085;-75
2021/11/18 02:24:58;;;;;;;15.73;13.23;;;11.80;68.60;;;;;;4995257;28;20057;-74
2021/11/18 02:27:27;;;;;;;16.30;13.00;;;11.80;69.00;;;;;;4980280;28;20090;-75
2021/11/18 02:29:55;;;;;;;17.85;12.00;;;11.80;69.20;;;;;;4979851;28;20066;-75
2021/11/18 02:32:26;;;;;;;18.42;12.48;;;11.70;69.30;;;;;;4979999;28;20054;-74
2021/11/18 02:34:54;;;;;;;18.42;12.75;;;11.70;69.20;;;;;;4979832;28;20113;-75
2021/11/18 02:37:21;;;;;;;17.50;12.07;;;11.70;69.50;;;;;;4979539;28;20014;-74
2021/11/18 02:39:47;;;;;;;15.85;12.05;;;11.60;69.30;;;;;;4979609;28;20503;-75
2021/11/18 02:42:14;;;;;;;16.13;11.95;;;11.60;69.60;;;;;;4979751;28;20078;-72
2021/11/18 02:44:41;;;;;;;14.70;11.63;;;11.60;69.60;;;;;;4977504;28;20037;-74
2021/11/18 02:47:12;;;;;;;14.70;12.18;;;11.60;69.40;;;;;;4976808;28;20035;-75
2021/11/18 02:49:45;;;;;;;15.90;11.43;;;11.60;69.40;;;;;;4976922;28;20057;-75
2021/11/18 02:52:10;;;;;;;;;;;11.60;69.40;;;;;;4977236;28;20027;-75
2021/11/18 02:54:37;;;;;;;12.02;10.10;;;11.60;69.20;;;;;;4976913;28;20053;-73
2021/11/18 02:57:03;;;;;;;12.77;9.73;;;11.60;69.00;;;;;;4976816;28;20491;-75
2021/11/18 02:59:29;;;;;;;13.20;9.77;;;11.60;69.00;;;;;;4976486;28;20069;-75
2021/11/18 03:01:55;;;;;;;12.40;9.48;;;11.60;68.90;;;;;;4991588;28;20132;-74
2021/11/18 03:04:21;;;;;;;11.13;9.23;;;11.60;68.90;;;;;;4991621;28;20078;-75
2021/11/18 03:06:46;;;;;;;10.98;9.05;;;11.60;68.90;;;;;;4976870;28;20037;-75
2021/11/18 03:09:12;;;;;;;9.68;8.55;;;11.60;68.80;;;;;;4976615;28;20411;-75
2021/11/18 03:11:38;;;;;;;10.57;9.10;;;11.70;68.70;;;;;;4976438;28;20511;-74
2021/11/18 03:14:04;;;;;;;10.30;8.38;;;11.60;68.60;;;;;;4976527;28;20031;-75
2021/11/18 03:16:30;;;;;;;11.18;9.18;;;11.60;68.60;;;;;;4976332;28;20035;-74
2021/11/18 03:18:56;;;;;;;10.68;8.88;;;11.60;68.60;;;;;;4976226;28;20034;-75
2021/11/18 03:21:25;;;;;;;11.07;8.63;;;11.60;68.50;;;;;;4975940;28;20027;-75
2021/11/18 03:23:51;;;;;;;12.00;9.75;;;11.60;68.60;;;;;;4976481;28;20019;-74
2021/11/18 03:26:20;;;;;;;12.63;8.50;;;11.60;68.60;;;;;;4976376;28;20444;-74
2021/11/18 03:28:46;;;;;;;11.20;8.52;;;11.60;68.70;;;;;;4975882;28;20023;-74
2021/11/18 03:31:14;;;;;;;13.18;9.68;;;11.60;68.80;;;;;;4976348;28;20093;-75
2021/11/18 03:33:47;;;;;;;11.80;10.02;;;11.50;68.70;;;;;;4975808;28;20521;-75
2021/11/18 03:36:14;;;;;;;10.90;8.45;;;11.50;68.90;;;;;;4976216;28;20027;-74
2021/11/18 03:38:41;;;;;;;11.05;9.25;;;11.60;68.90;;;;;;4975929;28;20054;-74
2021/11/18 03:41:07;;;;;;;12.20;9.88;;;11.50;68.90;;;;;;4990776;28;20479;-75
2021/11/18 03:43:44;;;;;;;10.60;8.55;;;11.50;68.90;;;;;;4975927;28;20484;-75
2021/11/18 03:46:11;;;;;;;9.68;8.23;;;11.50;68.90;;;;;;4976001;28;20808;-75
2021/11/18 03:48:37;;;;;;;11.10;8.70;;;11.50;68.80;;;;;;4990637;28;20475;-74
2021/11/18 03:51:05;;;;;;;10.57;8.52;;;11.50;69.00;;;;;;4975530;28;20431;-75
2021/11/18 03:53:35;;;;;;;10.30;8.77;;;11.50;68.90;;;;;;4975587;28;20538;-75
2021/11/18 03:56:03;;;;;;;12.23;8.43;;;11.40;68.50;;;;;;4975512;28;20125;-75
2021/11/18 03:58:29;;;;;;;8.85;7.95;;;11.40;68.80;;;;;;4990090;28;20037;-75
2021/11/18 04:00:56;;;;;;;9.18;8.20;;;11.40;68.80;;;;;;4975247;28;20062;-74
2021/11/18 04:03:22;;;;;;;9.98;8.30;;;11.40;68.70;;;;;;4975348;28;20027;-75
2021/11/18 04:05:48;;;;;;;10.43;7.93;;;11.40;68.70;;;;;;4975786;28;20058;-75
2021/11/18 04:08:13;;;;;;;9.65;7.85;;;11.40;68.60;;;;;;4975345;28;20065;-75
2021/11/18 04:10:41;;;;;;;9.43;7.95;;;11.40;68.80;;;;;;4975534;28;20352;-74
2021/11/18 04:13:09;;;;;;;9.07;7.55;;;11.40;68.80;;;;;;4975705;28;20110;-75
2021/11/18 04:15:36;;;;;;;10.10;8.15;;;11.40;69.30;;;;;;4975353;28;20114;-74
2021/11/18 04:18:02;;;;;;;9.60;7.95;;;11.40;69.20;;;;;;4990394;28;20031;-75
2021/11/18 04:20:29;;;;;;;8.48;7.45;;;11.40;68.80;;;;;;4974959;28;20042;-75
2021/11/18 04:22:56;;;;;;;8.93;7.80;;;11.40;68.50;;;;;;4974973;28;20484;-74
2021/11/18 04:25:27;;;;;;;10.15;7.80;;;11.40;68.20;;;;;;4975234;28;20086;-74
2021/11/18 04:27:53;;;;;;;9.60;8.57;;;11.40;68.20;;;;;;4975051;28;20376;-74
2021/11/18 04:30:25;;;;;;;10.77;8.00;;;11.40;68.10;;;;;;4975099;28;20023;-73
2021/11/18 04:32:51;;;;;;;9.43;8.33;;;11.40;68.10;;;;;;4975125;28;20084;-74
2021/11/18 04:35:17;;;;;;;10.70;8.50;;;11.40;67.90;;;;;;4975113;28;20102;-75
2021/11/18 04:37:43;;;;;;;9.98;8.05;;;11.40;67.90;;;;;;4974996;28;20030;-74
2021/11/18 04:40:11;;;;;;;10.25;8.25;;;11.40;68.20;;;;;;4974654;28;20510;-74
2021/11/18 04:42:40;;;;;;;9.45;8.30;;;11.40;68.60;;;;;;4974846;28;20538;-75
2021/11/18 04:45:06;;;;;;;10.20;8.50;;;11.40;68.90;;;;;;4974195;28;20031;-74
2021/11/18 04:47:32;;;;;;;9.63;8.63;;;11.40;69.10;;;;;;4974619;28;20026;-74
2021/11/18 04:49:58;;;;;;;9.55;8.25;;;11.30;69.10;;;;;;4974717;28;20377;-75
2021/11/18 04:52:23;;;;;;;11.77;8.98;;;11.30;69.10;;;;;;4974780;28;20443;-74
2021/11/18 04:54:49;;;;;;;9.88;8.60;;;11.30;69.20;;;;;;4974699;28;20371;-74
2021/11/18 04:57:15;;;;;;;9.13;7.80;;;11.30;69.00;;;;;;4974957;28;20031;-74
2021/11/18 04:59:41;;;;;;;9.68;7.75;;;11.40;68.40;;;;;;4974479;28;20034;-75
2021/11/18 05:02:08;;;;;;;9.07;7.30;;;11.40;68.20;;;;;;4974424;28;20057;-74
2021/11/18 05:04:34;;;;;;;9.02;7.57;;;11.40;68.10;;;;;;4974672;28;20038;-74
2021/11/18 05:07:00;;;;;;;8.63;6.78;;;11.40;68.00;;;;;;4974784;28;20030;-74
2021/11/18 05:09:25;;;;;;;8.75;7.20;;;11.40;68.00;;;;;;4973994;28;20030;-75
2021/11/18 05:11:52;;;;;;;10.55;7.68;;;11.40;68.30;;;;;;4974578;28;20049;-74
2021/11/18 05:14:18;;;;;;;10.38;8.02;;;11.40;68.40;;;;;;4974389;28;20067;-73
2021/11/18 05:16:44;;;;;;;8.95;7.90;;;11.40;69.00;;;;;;4974612;28;20030;-75
2021/11/18 05:19:10;;;;;;;10.25;7.95;;;11.30;68.30;;;;;;4974250;28;20039;-75
2021/11/18 05:21:35;;;;;;;8.57;7.57;;;11.30;68.30;;;;;;4974389;28;20463;-74
2021/11/18 05:24:05;;;;;;;9.77;8.02;;;11.30;68.50;;;;;;4974300;28;20037;-75
2021/11/18 05:26:32;;;;;;;11.35;8.63;;;11.30;68.60;;;;;;4971771;28;20510;-74
2021/11/18 05:28:58;;;;;;;9.38;7.72;;;11.30;68.90;;;;;;4971444;28;20065;-75
2021/11/18 05:31:27;;;;;;;10.00;7.93;;;11.30;69.00;;;;;;4973344;28;20483;-75
2021/11/18 05:33:53;;;;;;;10.48;8.05;;;11.30;69.20;;;;;;4974070;28;20502;-72
2021/11/18 05:36:19;;;;;;;11.13;8.38;;;11.30;69.20;;;;;;4974346;28;20030;-75
2021/11/18 05:38:46;;;;;;;11.13;7.65;;;11.20;69.60;;;;;;4974128;28;20476;-74
2021/11/18 05:41:14;;;;;;;12.05;8.30;;;11.20;69.00;;;;;;4974438;28;20061;-72
2021/11/18 05:43:42;;;;;;;11.38;8.18;;;11.20;69.00;;;;;;4973905;28;20030;-70
2021/11/18 05:46:12;;;;;;;10.38;8.23;;;11.20;69.70;;;;;;4973858;28;20023;-75
2021/11/18 05:48:38;;;;;;;10.05;7.93;;;11.20;69.00;;;;;;4974067;28;20019;-75
2021/11/18 05:51:05;;;;;;;11.90;8.15;;;11.20;69.20;;;;;;4974174;28;20038;-74
2021/11/18 05:53:35;;;;;;;10.15;8.43;;;11.20;69.40;;;;;;4973907;28;20518;-75
2021/11/18 05:56:05;;;;;;;8.80;7.82;;;11.20;69.50;;;;;;4974220;28;20018;-73
2021/11/18 05:58:31;;;;;;;8.98;7.60;;;11.20;69.40;;;;;;4974121;28;20037;-74
2021/11/18 06:00:57;;;;;;;11.40;8.10;;;11.20;69.30;;;;;;4973607;28;20078;-73
2021/11/18 06:03:22;;;;;;;9.38;8.05;;;11.20;69.30;;;;;;4973935;28;20432;-75
2021/11/18 06:05:48;;;;;;;15.75;8.73;;;11.20;69.30;;;;;;4974116;28;20094;-75
2021/11/18 06:08:14;;;;;;;9.77;8.07;;;11.20;69.30;;;;;;4973978;28;20046;-74
2021/11/18 06:10:40;;;;;;;11.18;8.23;;;11.20;69.40;;;;;;4973719;28;20057;-75
2021/11/18 06:13:07;;;;;;;10.10;7.75;;;11.20;69.20;;;;;;4973698;28;20027;-74
2021/11/18 06:15:33;;;;;;;11.60;7.80;;;11.20;69.10;;;;;;4973657;28;20031;-75
2021/11/18 06:17:59;;;;;;;13.77;8.60;;;11.20;69.00;;;;;;4973675;28;20023;-74
2021/11/18 06:20:26;;;;;;;10.85;8.52;;;11.20;69.00;;;;;;4975133;28;20035;-74
2021/11/18 06:22:53;;;;;;;12.05;8.95;;;11.10;69.10;;;;;;4977234;28;20031;-75
2021/11/18 06:25:23;;;;;;;9.88;8.48;;;11.20;69.40;;;;;;4977096;28;20038;-74
2021/11/18 06:27:50;;;;;;;9.93;8.13;;;11.20;69.40;;;;;;4977020;28;20033;-75
2021/11/18 06:30:21;;;;;;;11.07;8.77;;;11.20;69.50;;;;;;4977277;28;20034;-75
2021/11/18 06:32:47;;;;;;;12.93;8.77;;;11.20;69.50;;;;;;4977335;28;20123;-75
2021/11/18 06:35:15;;;;;;;13.10;8.80;;;11.20;69.50;;;;;;4977281;28;20034;-74
2021/11/18 06:37:41;;;;;;;12.20;8.80;;;11.20;69.50;;;;;;4977111;28;20019;-74
2021/11/18 06:40:09;;;;;;;13.18;8.88;;;11.20;69.70;;;;;;4976977;28;20039;-74
2021/11/18 06:42:34;;;;;;;13.85;8.60;;;11.20;70.00;;;;;;4976844;28;20023;-73
2021/11/18 06:45:00;;;;;;;13.40;8.70;;;11.20;70.10;;;;;;4977063;28;20085;-74
2021/11/18 06:47:26;;;;;;;35.53;10.02;;;11.20;70.30;;;;;;4975745;28;20572;-74
2021/11/18 06:49:53;;;;;;;26.67;10.07;;;11.20;70.40;;;;;;4975643;28;20527;-74
2021/11/18 06:52:19;;;;;;;23.60;10.10;;;11.20;70.30;;;;;;4996756;28;20109;-75
2021/11/18 06:54:49;;;;;;;14.82;8.50;;;11.20;70.20;;;;;;5014289;28;20093;-74
2021/11/18 06:57:15;;;;;;;11.13;8.50;;;11.20;70.20;;;;;;5006200;28;20037;-74
2021/11/18 06:59:41;;;;;;;23.42;9.07;;;11.30;70.30;;;;;;5004644;28;20521;-73
2021/11/18 07:02:07;;;;;;;24.65;9.18;;;11.30;70.30;;;;;;5015372;28;20069;-75
2021/11/18 07:04:33;;;;;;;16.23;8.55;;;11.30;70.40;;;;;;5006400;28;20054;-74
2021/11/18 07:06:59;;;;;;;20.05;8.90;;;11.30;70.50;;;;;;4995808;28;20022;-75
2021/11/18 07:09:24;;;;;;;16.38;8.45;;;11.30;70.40;;;;;;4994428;28;20026;-74
2021/11/18 07:11:50;;;;;;;16.55;8.10;;;11.30;70.10;;;;;;4993932;28;20490;-74
2021/11/18 07:14:15;;;;;;;11.85;7.85;;;11.30;70.20;;;;;;4995780;28;20036;-73
2021/11/18 07:16:41;;;;;;;9.63;7.57;;;11.40;70.50;;;;;;4995344;28;20026;-75
2021/11/18 07:19:07;;;;;;;8.48;7.47;;;11.40;70.20;;;;;;4995682;28;20022;-74
2021/11/18 07:21:35;;;;;;;10.63;7.72;;;11.40;69.70;;;;;;4995554;28;20026;-74
2021/11/18 07:24:03;;;;;;;13.73;7.80;;;11.50;69.70;;;;;;4995033;28;20049;-73
2021/11/18 07:26:35;;;;;;;14.05;7.32;;;11.50;69.70;;;;;;4995501;28;20038;-75
2021/11/18 07:29:01;;;;;;;36.22;8.82;;;11.50;69.60;;;;;;4994910;28;20018;-75
2021/11/18 07:31:27;;;;;;;13.57;7.90;;;11.60;69.60;;;;;;4994261;28;20555;-74
2021/11/18 07:33:53;;;;;;;11.02;7.82;;;11.50;69.60;;;;;;4994846;28;20042;-74
2021/11/18 07:36:19;;;;;;;9.73;7.00;;;11.60;69.50;;;;;;4994939;28;20058;-74
2021/11/18 07:38:45;;;;;;;8.38;6.55;;;11.60;69.50;;;;;;4994460;28;20089;-75
2021/11/18 07:41:11;;;;;;;8.65;6.85;;;11.60;69.30;;;;;;5009623;28;20034;-74
2021/11/18 07:43:41;;;;;;;8.63;6.70;;;11.70;69.10;;;;;;4995205;28;20038;-74
2021/11/18 07:46:07;;;;;;;9.80;7.03;;;11.70;69.50;;;;;;4995101;28;20124;-74
2021/11/18 07:48:34;;;;;;;12.10;6.50;;;11.70;69.40;;;;;;4995004;28;20030;-74
2021/11/18 07:51:01;;;;;;;9.77;6.78;;;11.80;71.20;;;;;;4994616;28;20034;-74
2021/11/18 07:53:28;;;;;;;11.45;6.45;;;11.90;73.90;;;;;;4994543;28;20034;-75
2021/11/18 07:55:54;;;;;;;7.57;6.63;;;11.90;78.10;;;;;;4994594;28;20077;-75
2021/11/18 07:58:20;;;;;;;8.90;6.32;;;11.90;80.10;;;;;;4994547;28;20030;-75
2021/11/18 08:00:48;;;;;;;9.70;6.80;;;11.90;79.30;;;;;;4993104;28;20086;-85
2021/11/18 08:03:14;;;;;;;7.93;6.93;;;12.00;79.30;;;;;;4994140;28;20019;-77
2021/11/18 08:05:41;;;;;;;14.32;6.70;;;12.00;79.40;;;;;;4994570;28;20037;-74
2021/11/18 08:08:07;;;;;;;8.35;6.35;;;12.00;80.40;;;;;;4994449;28;20104;-78
2021/11/18 08:10:34;;;;;;;7.00;6.13;;;12.00;78.30;;;;;;4994282;28;20025;-76
2021/11/18 08:13:00;;;;;;;7.95;6.38;;;11.90;78.00;;;;;;4994791;28;20026;-81
2021/11/18 08:15:29;;;;;;;8.98;6.60;;;12.00;77.40;;;;;;4994643;28;20026;-82
2021/11/18 08:17:54;;;;;;;8.43;6.00;;;11.90;77.30;;;;;;4994681;28;20030;-78
2021/11/18 08:20:22;;;;;;;9.13;6.40;;;11.90;77.70;;;;;;4994718;28;20089;-77
2021/11/18 08:22:48;;;;;;;8.82;6.75;;;11.90;78.00;;;;;;4994745;28;20027;-83
2021/11/18 08:25:17;;;;;;;10.63;6.90;;;11.90;78.50;;;;;;4994835;28;20033;-83
2021/11/18 08:27:43;;;;;;;8.25;6.60;;;11.90;78.30;;;;;;4994545;28;20027;-83
2021/11/18 08:30:15;;;;;;;8.43;6.65;;;11.90;78.60;;;;;;4994931;28;20038;-77
2021/11/18 08:32:43;;;;;;;14.85;7.53;;;12.00;79.20;;;;;;5009620;28;20030;-80
2021/11/18 08:35:09;;;;;;;14.63;7.55;;;11.90;68.50;;;;;;4994636;28;20026;-81
2021/11/18 08:37:35;;;;;;;13.52;7.10;;;11.90;68.50;;;;;;5009864;28;20383;-80
2021/11/18 08:40:01;;;;;;;7.95;6.50;;;11.90;68.00;;;;;;4994125;28;20042;-80
2021/11/18 08:42:27;;;;;;;9.60;6.72;;;12.10;72.70;;;;;;4993784;28;20030;-77
2021/11/18 08:44:54;;;;;;;7.90;6.28;;;12.10;67.20;;;;;;4994456;28;20027;-81
2021/11/18 08:47:22;;;;;;;8.40;6.70;;;;;;;;;;4994407;28;20025;-82
2021/11/18 08:49:49;;;;;;;13.35;6.80;;;12.20;66.40;;;;;;4993904;28;20030;-81
2021/11/18 08:52:18;;;;;;;8.68;6.43;;;12.30;66.40;;;;;;4994130;28;20022;-80
2021/11/18 08:54:48;;;;;;;8.68;6.38;;;12.40;65.90;;;;;;4994230;28;20034;-83
2021/11/18 08:57:14;;;;;;;7.47;6.10;;;12.40;65.80;;;;;;4994313;28;20023;-82
2021/11/18 08:59:42;;;;;;;7.22;6.07;;;12.60;65.70;;;;;;4993873;28;20064;-83
2021/11/18 09:02:16;;;;;;;7.65;6.38;;;12.70;65.10;;;;;;4993817;28;20042;-84
2021/11/18 09:04:42;;;;;;;7.93;6.53;;;12.80;65.10;;;;;;4993252;28;20030;-79
2021/11/18 09:07:08;;;;;;;7.90;6.38;;;12.90;64.80;;;;;;4992274;28;20390;-79
2021/11/18 09:09:35;;;;;;;9.43;6.30;;;13.00;80.80;;;;;;4993214;28;20458;-80
2021/11/18 09:12:01;;;;;;;7.32;6.13;;;13.10;74.30;;;;;;4994081;28;20030;-79
2021/11/18 09:14:28;;;;;;;9.13;5.93;;;13.10;64.40;;;;;;4994088;28;20041;-80
2021/11/18 09:16:54;;;;;;;8.85;5.85;;;13.30;64.90;;;;;;4993850;28;20101;-80
2021/11/18 09:19:24;;;;;;;6.63;5.70;;;13.40;65.90;;;;;;4992814;28;20062;-81
2021/11/18 09:21:51;;;;;;;7.60;5.65;;;13.50;68.30;;;;;;4993739;28;20026;-82
2021/11/18 09:24:33;;;;;;;9.85;5.82;;;13.50;72.10;;;;;;4993649;28;20030;-84
2021/11/18 09:27:04;;;;;;;8.07;6.28;;;13.60;77.40;;;;;;4993413;28;20100;-83
2021/11/18 09:29:30;;;;;;;8.68;6.32;;;13.70;78.30;;;;;;4993541;28;20026;-83
2021/11/18 09:31:57;;;;;;;7.70;5.82;;;13.80;77.70;;;;;;4993824;28;20037;-82
2021/11/18 09:34:23;;;;;;;7.75;6.50;;;13.80;77.40;;;;;;4993588;28;20034;-83
2021/11/18 09:36:49;;;;;;;7.15;6.00;;;13.90;77.10;;;;;;4993627;28;20085;-83
2021/11/18 09:39:15;;;;;;;9.40;6.95;;;13.90;76.60;;;;;;4993592;28;20486;-83
2021/11/18 09:41:47;;;;;;;19.92;6.80;;;14.00;76.30;;;;;;4993400;28;20057;-74
2021/11/18 09:44:25;;;;;;;14.40;6.30;;;14.10;61.00;;;;;;4993702;28;20061;-83
2021/11/18 09:47:28;;;;;;;10.60;6.18;;;14.10;61.30;;;;;;4993912;28;20038;-81
2021/11/18 09:50:12;;;;;;;9.23;6.10;;;14.20;60.60;;;;;;4993487;28;20109;-78
2021/11/18 09:52:38;;;;;;;7.57;6.28;;;14.20;59.50;;;;;;4993531;28;20437;-81
2021/11/18 09:55:13;;;;;;;9.35;6.60;;;14.20;58.80;;;;;;4996032;28;20089;-81
2021/11/18 09:57:57;;;;;;;10.27;7.15;;;14.20;58.70;;;;;;4997339;28;20081;-79
2021/11/18 10:00:46;;;;;;;8.98;7.00;;;14.10;58.70;;;;;;4996810;28;20184;-78
2021/11/18 10:03:24;;;;;;;10.35;7.45;;;14.10;59.00;;;;;;4995912;28;20077;-79
2021/11/18 10:06:17;;;;;;;10.65;7.97;;;14.10;59.50;;;;;;4996007;28;20041;-80
2021/11/18 10:09:12;;;;;;;11.57;7.75;;;14.10;59.90;;;;;;4997050;28;20470;-77
2021/11/18 10:11:43;;;;;;;9.32;7.68;;;14.10;59.60;;;;;;4997143;28;20134;-80
2021/11/18 10:14:24;;;;;;;9.90;7.22;;;14.20;59.60;;;;;;4996951;28;20030;-78
2021/11/18 10:17:13;;;;;;;8.57;7.20;;;14.20;58.80;;;;;;4997036;28;20062;-79
2021/11/18 10:19:47;;;;;;;9.60;6.88;;;14.20;58.10;;;;;;4994805;28;20092;-80
2021/11/18 10:22:15;;;;;;;8.07;6.53;;;14.20;58.30;;;;;;4996637;28;20097;-82
2021/11/18 10:24:44;;;;;;;9.68;7.35;;;14.20;59.20;;;;;;4997206;28;20493;-81
2021/11/18 10:27:28;;;;;;;16.45;7.25;;;14.20;58.50;;;;;;4996775;28;20030;-81
2021/11/18 10:30:03;;;;;;;10.70;7.72;;;14.20;58.60;;;;;;4996803;28;20065;-81
2021/11/18 10:32:32;;;;;;;10.07;7.60;;;14.20;58.70;;;;;;4996572;28;20065;-72
2021/11/18 10:35:13;;;;;;;12.93;7.78;;;14.20;59.00;;;;;;4996039;28;20026;-72
2021/11/18 10:37:50;;;;;;;9.98;7.65;;;14.10;58.30;;;;;;4996431;28;20149;-71
2021/11/18 10:40:24;;;;;;;9.30;7.78;;;14.10;58.50;;;;;;4996073;28;20030;-72
2021/11/18 10:43:15;;;;;;;10.07;7.93;;;14.10;58.90;;;;;;4996667;28;20033;-72
2021/11/18 10:46:06;;;;;;;10.10;7.60;;;14.10;58.70;;;;;;4996268;28;20080;-72
2021/11/18 10:48:36;;;;;;;10.45;7.65;;;14.10;58.60;;;;;;4996223;28;20424;-72
2021/11/18 10:51:07;;;;;;;8.38;6.82;;;14.10;58.90;;;;;;5010643;28;20398;-72
2021/11/18 10:54:06;;;;;;;10.15;7.80;;;14.10;58.70;;;;;;4995497;28;20030;-72
2021/11/18 10:56:55;;;;;;;8.95;7.75;;;14.20;59.10;;;;;;4995757;28;20038;-72
2021/11/18 10:59:35;;;;;;;9.32;7.70;;;14.20;58.30;;;;;;4996230;28;20060;-71
2021/11/18 11:02:01;;;;;;;8.98;7.20;;;14.20;58.20;;;;;;4995929;28;20051;-71
2021/11/18 11:04:46;;;;;;;9.25;7.32;;;14.30;58.50;;;;;;4995862;28;20027;-71
2021/11/18 11:07:12;;;;;;;9.50;6.85;;;14.30;57.70;;;;;;4995163;28;20050;-71
2021/11/18 11:09:43;;;;;;;7.95;6.63;;;14.40;57.00;;;;;;4996379;28;20387;-71
2021/11/18 11:12:20;;;;;;;8.15;6.40;;;14.40;57.00;;;;;;4996099;28;20037;-71
2021/11/18 11:15:23;;;;;;;8.20;6.95;;;14.40;56.70;;;;;;4995819;28;20026;-71
2021/11/18 11:18:15;;;;;;;11.82;6.90;;;14.50;56.90;;;;;;4995645;28;20030;-71
2021/11/18 11:20:52;;;;;;;8.35;6.82;;;14.50;56.40;;;;;;4995249;28;20031;-71
2021/11/18 11:23:55;;;;;;;7.85;6.30;;;14.40;56.20;;;;;;4996159;28;20370;-70
2021/11/18 11:26:46;;;;;;;8.20;6.38;;;14.40;56.80;;;;;;4995446;28;20026;-70
2021/11/18 11:29:38;;;;;;;7.50;5.70;;;14.40;56.60;;;;;;4995603;28;20106;-71
2021/11/18 11:32:36;;;;;;;7.55;5.95;;;14.50;57.10;;;;;;4995506;28;20089;-71
2021/11/18 11:35:09;;;;;;;8.10;6.22;;;14.50;55.90;;;;;;4994807;28;20046;-71
2021/11/18 11:37:46;;;;;;;10.07;5.70;;;14.50;55.80;;;;;;4995740;28;20027;-70
2021/11/18 11:40:44;;;;;;;8.07;6.07;;;14.50;55.60;;;;;;4995277;28;20050;-71
2021/11/18 11:43:25;;;;;;;9.57;5.78;;;14.50;55.50;;;;;;4983497;28;20042;-71
2021/11/18 11:46:12;;;;;;;8.05;6.03;;;14.60;56.00;;;;;;4995086;28;20098;-71
2021/11/18 11:49:00;;;;;;;7.68;5.47;;;14.60;55.70;;;;;;4995156;28;20023;-71
2021/11/18 11:51:28;;;;;;;8.65;5.53;;;14.60;54.90;;;;;;4994786;28;20371;-71
2021/11/18 11:54:30;;;;;;;10.02;6.40;;;14.50;55.30;;;;;;4995237;28;20037;-71
2021/11/18 11:57:10;;;;;;;7.25;5.85;;;14.50;55.50;;;;;;4995158;28;20454;-71
2021/11/18 11:59:40;;;;;;;6.28;5.50;;;14.40;56.30;;;;;;4994873;28;20475;-71
2021/11/18 12:02:39;;;;;;;6.15;5.47;;;14.40;55.90;;;;;;4994689;28;20073;-71
2021/11/18 12:05:13;;;;;;;7.55;5.15;;;14.40;56.10;;;;;;4995058;28;20034;-71
2021/11/18 12:08:08;;;;;;;6.20;5.20;;;14.50;55.40;;;;;;4995244;28;20049;-71
2021/11/18 12:10:43;;;;;;;7.38;5.47;;;14.50;55.90;;;;;;4994289;28;20034;-70
2021/11/18 12:13:12;;;;;;;7.82;5.18;;;14.60;56.00;;;;;;4995036;28;20026;-71
2021/11/18 12:15:46;;;;;;;8.88;4.85;;;14.60;55.50;;;;;;4994694;28;20380;-71
2021/11/18 12:18:38;;;;;;;6.43;5.30;;;14.60;55.40;;;;;;4994740;28;20574;-70
2021/11/18 12:21:04;;;;;;;7.22;5.35;;;14.70;55.60;;;;;;4994993;28;20034;-71
2021/11/18 12:24:09;;;;;;;6.93;5.25;;;14.70;55.40;;;;;;4994732;28;20102;-71
2021/11/18 12:26:55;;;;;;;7.72;5.30;;;14.80;55.40;;;;;;4994804;28;20030;-71
2021/11/18 12:29:44;;;;;;;6.72;5.00;;;14.80;54.80;;;;;;4994645;28;20023;-71
2021/11/18 12:32:24;;;;;;;8.20;5.07;;;14.80;54.90;;;;;;4994653;28;20037;-71
2021/11/18 12:35:03;;;;;;;8.38;4.97;;;14.90;55.20;;;;;;4991075;28;20022;-72
2021/11/18 12:37:34;;;;;;;6.40;5.20;;;14.90;53.70;;;;;;4994318;28;20426;-71
2021/11/18 12:40:00;;;;;;;6.70;5.00;;;14.90;53.90;;;;;;4994131;28;20081;-71
2021/11/18 12:42:55;;;;;;;6.93;4.55;;;14.90;53.70;;;;;;4994396;28;20058;-71
2021/11/18 12:45:49;;;;;;;6.60;4.78;;;14.90;54.10;;;;;;4994591;28;20034;-71
2021/11/18 12:48:59;;;;;;;6.75;4.88;;;14.90;54.20;;;;;;4994126;28;20057;-72
2021/11/18 12:51:52;;;;;;;6.07;4.60;;;14.80;53.80;;;;;;4993872;28;20032;-71
2021/11/18 12:54:33;;;;;;;8.73;4.95;;;14.90;54.30;;;;;;4994227;28;20102;-72
2021/11/18 12:57:34;;;;;;;5.47;4.40;;;14.80;54.80;;;;;;4994280;28;20390;-71
2021/11/18 13:00:08;;;;;;;6.47;4.93;;;14.80;54.00;;;;;;4993515;28;20061;-71